sensor_id;sensor_type;location;lat;lon;timestamp;pressure;altitude;pressure_sealevel;temperature;humidity
16806;BME280;8520;50.102;20.010;2022-10-16T00:01:19;98432.41;;;19.01;60.66
16806;BME280;8520;50.102;20.010;2022-10-16T00:03:49;98435.66;;;19.05;60.77
16806;BME280;8520;50.102;20.010;2022-10-16T00:06:19;98434.69;;;19.02;60.80
16806;BME280;8520;50.102;20.010;2022-10-16T00:08:49;98432.34;;;19.07;60.42
16806;BME280;8520;50.102;20.010;2022-10-16T00:11:19;98436.34;;;19.11;60.47
16806;BME280;8520;50.102;20.010;2022-10-16T00:13:49;98436.78;;;19.15;60.16
16806;BME280;8520;50.102;20.010;2022-10-16T00:16:19;98432.50;;;19.14;60.16
16806;BME280;8520;50.102;20.010;2022-10-16T00:18:47;98438.69;;;19.07;60.25
16806;BME280;8520;50.102;20.010;2022-10-16T00:21:19;98444.72;;;19.11;60.18
16806;BME280;8520;50.102;20.010;2022-10-16T00:23:51;98450.38;;;19.06;60.23
16806;BME280;8520;50.102;20.010;2022-10-16T00:26:20;98450.91;;;19.04;60.32
16806;BME280;8520;50.102;20.010;2022-10-16T00:28:48;98448.94;;;18.99;59.82
16806;BME280;8520;50.102;20.010;2022-10-16T00:31:18;98451.13;;;19.06;59.92
16806;BME280;8520;50.102;20.010;2022-10-16T00:33:46;98457.81;;;18.79;63.51
16806;BME280;8520;50.102;20.010;2022-10-16T00:36:16;98464.69;;;18.78;63.63
16806;BME280;8520;50.102;20.010;2022-10-16T00:38:45;98463.03;;;18.88;63.43
16806;BME280;8520;50.102;20.010;2022-10-16T00:41:16;98459.19;;;18.91;63.15
16806;BME280;8520;50.102;20.010;2022-10-16T00:43:45;98454.44;;;18.86;63.19
16806;BME280;8520;50.102;20.010;2022-10-16T00:46:17;98467.09;;;18.87;63.22
16806;BME280;8520;50.102;20.010;2022-10-16T00:48:51;98474.50;;;18.84;63.15
16806;BME280;8520;50.102;20.010;2022-10-16T00:51:23;98479.34;;;18.84;63.21
16806;BME280;8520;50.102;20.010;2022-10-16T00:53:54;98472.22;;;18.83;63.36
16806;BME280;8520;50.102;20.010;2022-10-16T00:56:24;98465.38;;;18.84;62.91
16806;BME280;8520;50.102;20.010;2022-10-16T00:58:52;98468.16;;;18.84;62.78
16806;BME280;8520;50.102;20.010;2022-10-16T01:01:20;98471.19;;;18.86;62.65
16806;BME280;8520;50.102;20.010;2022-10-16T01:03:48;98479.56;;;18.86;62.73
16806;BME280;8520;50.102;20.010;2022-10-16T01:06:22;98470.47;;;18.80;62.95
16806;BME280;8520;50.102;20.010;2022-10-16T01:09:11;98481.66;;;18.80;63.58
16806;BME280;8520;50.102;20.010;2022-10-16T01:11:50;98472.53;;;18.79;62.92
16806;BME280;8520;50.102;20.010;2022-10-16T01:14:27;98480.44;;;18.75;63.13
16806;BME280;8520;50.102;20.010;2022-10-16T01:17:04;98479.50;;;18.67;62.97
16806;BME280;8520;50.102;20.010;2022-10-16T01:19:44;98474.91;;;18.69;63.03
16806;BME280;8520;50.102;20.010;2022-10-16T01:22:17;98474.69;;;18.62;62.56
16806;BME280;8520;50.102;20.010;2022-10-16T01:24:49;98474.16;;;18.69;62.40
16806;BME280;8520;50.102;20.010;2022-10-16T01:27:21;98465.78;;;18.69;62.02
16806;BME280;8520;50.102;20.010;2022-10-16T01:29:53;98473.56;;;18.76;62.04
16806;BME280;8520;50.102;20.010;2022-10-16T01:32:30;98460.91;;;18.75;61.60
16806;BME280;8520;50.102;20.010;2022-10-16T01:35:03;98473.56;;;18.76;62.54
16806;BME280;8520;50.102;20.010;2022-10-16T01:37:37;98476.53;;;18.84;62.03
16806;BME280;8520;50.102;20.010;2022-10-16T01:40:10;98480.59;;;18.83;61.43
16806;BME280;8520;50.102;20.010;2022-10-16T01:42:42;98484.38;;;18.85;61.06
16806;BME280;8520;50.102;20.010;2022-10-16T01:45:14;98482.56;;;18.88;61.33
16806;BME280;8520;50.102;20.010;2022-10-16T01:47:45;98486.44;;;18.85;62.21
16806;BME280;8520;50.102;20.010;2022-10-16T01:50:16;98488.22;;;18.82;63.36
16806;BME280;8520;50.102;20.010;2022-10-16T01:52:48;98491.47;;;18.86;63.24
16806;BME280;8520;50.102;20.010;2022-10-16T01:55:21;98493.03;;;18.82;63.40
16806;BME280;8520;50.102;20.010;2022-10-16T01:57:52;98485.41;;;18.82;63.14
16806;BME280;8520;50.102;20.010;2022-10-16T02:00:22;98492.88;;;18.74;63.26
16806;BME280;8520;50.102;20.010;2022-10-16T02:02:53;98496.72;;;18.71;63.44
16806;BME280;8520;50.102;20.010;2022-10-16T02:05:25;98497.25;;;18.69;63.21
16806;BME280;8520;50.102;20.010;2022-10-16T02:07:54;98489.31;;;18.73;63.24
16806;BME280;8520;50.102;20.010;2022-10-16T02:10:26;98496.94;;;18.73;63.11
16806;BME280;8520;50.102;20.010;2022-10-16T02:13:03;98491.97;;;18.66;63.21
16806;BME280;8520;50.102;20.010;2022-10-16T02:15:33;98492.09;;;18.49;63.40
16806;BME280;8520;50.102;20.010;2022-10-16T02:18:01;98492.47;;;18.34;63.85
16806;BME280;8520;50.102;20.010;2022-10-16T02:20:33;98491.91;;;18.41;63.76
16806;BME280;8520;50.102;20.010;2022-10-16T02:23:03;98494.81;;;18.30;64.25
16806;BME280;8520;50.102;20.010;2022-10-16T02:25:33;98490.75;;;18.31;64.17
16806;BME280;8520;50.102;20.010;2022-10-16T02:28:07;98494.06;;;18.30;64.36
16806;BME280;8520;50.102;20.010;2022-10-16T02:30:42;98493.34;;;18.24;64.49
16806;BME280;8520;50.102;20.010;2022-10-16T02:33:12;98490.53;;;18.24;64.69
16806;BME280;8520;50.102;20.010;2022-10-16T02:35:43;98499.66;;;18.24;64.71
16806;BME280;8520;50.102;20.010;2022-10-16T02:38:13;98498.69;;;18.22;65.10
16806;BME280;8520;50.102;20.010;2022-10-16T02:40:42;98488.50;;;18.24;64.86
16806;BME280;8520;50.102;20.010;2022-10-16T02:43:12;98493.09;;;18.22;65.15
16806;BME280;8520;50.102;20.010;2022-10-16T02:45:40;98500.72;;;18.21;65.31
16806;BME280;8520;50.102;20.010;2022-10-16T02:48:09;98494.88;;;18.19;65.51
16806;BME280;8520;50.102;20.010;2022-10-16T02:50:37;98490.59;;;18.18;65.59
16806;BME280;8520;50.102;20.010;2022-10-16T02:53:05;98488.09;;;18.14;65.92
16806;BME280;8520;50.102;20.010;2022-10-16T02:55:33;98495.72;;;18.14;65.73
16806;BME280;8520;50.102;20.010;2022-10-16T02:58:01;98494.72;;;18.11;65.88
16806;BME280;8520;50.102;20.010;2022-10-16T03:00:30;98496.56;;;18.03;66.51
16806;BME280;8520;50.102;20.010;2022-10-16T03:02:58;98493.47;;;18.07;66.50
16806;BME280;8520;50.102;20.010;2022-10-16T03:05:26;98506.75;;;17.95;66.61
16806;BME280;8520;50.102;20.010;2022-10-16T03:07:54;98512.56;;;17.97;66.61
16806;BME280;8520;50.102;20.010;2022-10-16T03:10:22;98501.44;;;17.91;66.71
16806;BME280;8520;50.102;20.010;2022-10-16T03:12:50;98503.75;;;17.87;66.43
16806;BME280;8520;50.102;20.010;2022-10-16T03:15:18;98501.94;;;17.96;66.46
16806;BME280;8520;50.102;20.010;2022-10-16T03:17:48;98498.97;;;17.82;67.10
16806;BME280;8520;50.102;20.010;2022-10-16T03:20:16;98501.22;;;17.89;66.84
16806;BME280;8520;50.102;20.010;2022-10-16T03:22:44;98496.88;;;17.94;66.54
16806;BME280;8520;50.102;20.010;2022-10-16T03:25:12;98497.78;;;17.72;66.92
16806;BME280;8520;50.102;20.010;2022-10-16T03:27:40;98504.28;;;17.86;66.94
16806;BME280;8520;50.102;20.010;2022-10-16T03:30:09;98509.41;;;17.76;67.12
16806;BME280;8520;50.102;20.010;2022-10-16T03:32:37;98505.34;;;17.77;66.85
16806;BME280;8520;50.102;20.010;2022-10-16T03:35:07;98512.09;;;17.46;67.72
16806;BME280;8520;50.102;20.010;2022-10-16T03:37:35;98516.03;;;17.68;67.04
16806;BME280;8520;50.102;20.010;2022-10-16T03:40:04;98523.06;;;17.80;66.89
16806;BME280;8520;50.102;20.010;2022-10-16T03:42:32;98518.69;;;17.90;66.63
16806;BME280;8520;50.102;20.010;2022-10-16T03:45:00;98529.06;;;17.95;66.42
16806;BME280;8520;50.102;20.010;2022-10-16T03:47:28;98534.09;;;17.97;66.42
16806;BME280;8520;50.102;20.010;2022-10-16T03:49:56;98534.09;;;17.97;66.36
16806;BME280;8520;50.102;20.010;2022-10-16T03:52:26;98543.63;;;17.77;66.73
16806;BME280;8520;50.102;20.010;2022-10-16T03:54:54;98544.38;;;17.77;66.75
16806;BME280;8520;50.102;20.010;2022-10-16T03:57:22;98549.88;;;17.88;66.48
16806;BME280;8520;50.102;20.010;2022-10-16T03:59:50;98542.72;;;17.99;66.17
16806;BME280;8520;50.102;20.010;2022-10-16T04:02:18;98552.13;;;17.96;66.60
16806;BME280;8520;50.102;20.010;2022-10-16T04:04:46;98554.59;;;17.99;66.15
16806;BME280;8520;50.102;20.010;2022-10-16T04:07:14;98551.03;;;18.04;66.06
16806;BME280;8520;50.102;20.010;2022-10-16T04:09:44;98553.50;;;18.13;66.03
16806;BME280;8520;50.102;20.010;2022-10-16T04:12:12;98555.81;;;18.09;65.97
16806;BME280;8520;50.102;20.010;2022-10-16T04:14:40;98555.34;;;18.05;65.49
16806;BME280;8520;50.102;20.010;2022-10-16T04:17:08;98556.28;;;18.13;65.45
16806;BME280;8520;50.102;20.010;2022-10-16T04:19:36;98558.00;;;18.22;65.30
16806;BME280;8520;50.102;20.010;2022-10-16T04:22:04;98556.81;;;18.12;65.67
16806;BME280;8520;50.102;20.010;2022-10-16T04:24:32;98555.25;;;18.16;65.35
16806;BME280;8520;50.102;20.010;2022-10-16T04:27:01;98557.47;;;18.24;65.31
16806;BME280;8520;50.102;20.010;2022-10-16T04:29:29;98552.13;;;18.26;65.32
16806;BME280;8520;50.102;20.010;2022-10-16T04:31:57;98566.38;;;18.22;64.96
16806;BME280;8520;50.102;20.010;2022-10-16T04:34:25;98553.94;;;18.23;65.15
16806;BME280;8520;50.102;20.010;2022-10-16T04:36:53;98554.13;;;18.31;65.38
16806;BME280;8520;50.102;20.010;2022-10-16T04:39:22;98562.06;;;18.21;65.47
16806;BME280;8520;50.102;20.010;2022-10-16T04:41:50;98556.97;;;18.25;65.52
16806;BME280;8520;50.102;20.010;2022-10-16T04:44:19;98556.94;;;18.31;65.45
16806;BME280;8520;50.102;20.010;2022-10-16T04:46:47;98564.25;;;18.34;65.33
16806;BME280;8520;50.102;20.010;2022-10-16T04:49:15;98562.75;;;18.33;65.59
16806;BME280;8520;50.102;20.010;2022-10-16T04:51:43;98563.34;;;18.20;66.35
16806;BME280;8520;50.102;20.010;2022-10-16T04:54:11;98565.09;;;18.23;66.48
16806;BME280;8520;50.102;20.010;2022-10-16T04:56:39;98569.19;;;18.16;66.68
16806;BME280;8520;50.102;20.010;2022-10-16T04:59:13;98564.91;;;18.10;67.04
16806;BME280;8520;50.102;20.010;2022-10-16T05:01:43;98572.78;;;18.11;66.92
16806;BME280;8520;50.102;20.010;2022-10-16T05:04:11;98577.13;;;18.07;67.27
16806;BME280;8520;50.102;20.010;2022-10-16T05:06:42;98585.78;;;18.03;66.99
16806;BME280;8520;50.102;20.010;2022-10-16T05:09:10;98582.50;;;17.99;67.21
16806;BME280;8520;50.102;20.010;2022-10-16T05:11:38;98581.81;;;17.87;67.38
16806;BME280;8520;50.102;20.010;2022-10-16T05:14:06;98577.06;;;17.77;67.84
16806;BME280;8520;50.102;20.010;2022-10-16T05:16:34;98581.06;;;17.81;67.78
16806;BME280;8520;50.102;20.010;2022-10-16T05:19:03;98582.84;;;17.84;67.59
16806;BME280;8520;50.102;20.010;2022-10-16T05:21:51;98571.69;;;17.84;67.69
16806;BME280;8520;50.102;20.010;2022-10-16T05:24:19;98568.66;;;17.82;67.57
16806;BME280;8520;50.102;20.010;2022-10-16T05:26:47;98575.78;;;17.78;67.68
16806;BME280;8520;50.102;20.010;2022-10-16T05:29:15;98582.91;;;17.68;68.09
16806;BME280;8520;50.102;20.010;2022-10-16T05:31:43;98586.69;;;17.76;67.87
16806;BME280;8520;50.102;20.010;2022-10-16T05:34:12;98590.75;;;17.75;67.93
16806;BME280;8520;50.102;20.010;2022-10-16T05:36:40;98590.25;;;17.76;67.92
16806;BME280;8520;50.102;20.010;2022-10-16T05:39:08;98587.44;;;17.76;68.05
16806;BME280;8520;50.102;20.010;2022-10-16T05:41:36;98593.56;;;17.63;68.43
16806;BME280;8520;50.102;20.010;2022-10-16T05:44:04;98588.22;;;17.71;68.45
16806;BME280;8520;50.102;20.010;2022-10-16T05:46:33;98594.53;;;17.77;68.17
16806;BME280;8520;50.102;20.010;2022-10-16T05:49:01;98594.25;;;17.81;68.17
16806;BME280;8520;50.102;20.010;2022-10-16T05:51:31;98592.50;;;17.83;68.23
16806;BME280;8520;50.102;20.010;2022-10-16T05:53:59;98587.69;;;17.78;68.34
16806;BME280;8520;50.102;20.010;2022-10-16T05:56:27;98593.31;;;17.61;69.10
16806;BME280;8520;50.102;20.010;2022-10-16T05:58:55;98593.25;;;17.78;68.59
16806;BME280;8520;50.102;20.010;2022-10-16T06:01:23;98589.19;;;17.79;68.56
16806;BME280;8520;50.102;20.010;2022-10-16T06:03:52;98585.13;;;17.80;68.75
16806;BME280;8520;50.102;20.010;2022-10-16T06:06:24;98603.03;;;17.96;68.55
16806;BME280;8520;50.102;20.010;2022-10-16T06:08:55;98597.25;;;17.94;68.52
16806;BME280;8520;50.102;20.010;2022-10-16T06:11:25;98604.53;;;18.03;68.50
16806;BME280;8520;50.102;20.010;2022-10-16T06:13:54;98615.16;;;18.04;68.46
16806;BME280;8520;50.102;20.010;2022-10-16T06:16:23;98611.66;;;17.98;68.45
16806;BME280;8520;50.102;20.010;2022-10-16T06:18:53;98620.75;;;18.04;68.53
16806;BME280;8520;50.102;20.010;2022-10-16T06:21:23;98632.19;;;17.95;68.84
16806;BME280;8520;50.102;20.010;2022-10-16T06:23:54;98631.16;;;17.98;69.13
16806;BME280;8520;50.102;20.010;2022-10-16T06:26:23;98632.16;;;18.01;69.04
16806;BME280;8520;50.102;20.010;2022-10-16T06:28:53;98641.25;;;18.07;68.66
16806;BME280;8520;50.102;20.010;2022-10-16T06:31:22;98645.25;;;18.17;68.40
16806;BME280;8520;50.102;20.010;2022-10-16T06:33:54;98645.47;;;18.19;68.54
16806;BME280;8520;50.102;20.010;2022-10-16T06:36:23;98654.31;;;18.29;68.25
16806;BME280;8520;50.102;20.010;2022-10-16T06:38:52;98659.38;;;18.30;67.99
16806;BME280;8520;50.102;20.010;2022-10-16T06:41:22;98651.97;;;18.38;68.22
16806;BME280;8520;50.102;20.010;2022-10-16T06:43:50;98659.84;;;18.34;68.58
16806;BME280;8520;50.102;20.010;2022-10-16T06:46:20;98665.09;;;18.49;68.67
16806;BME280;8520;50.102;20.010;2022-10-16T06:48:49;98671.88;;;18.54;68.88
16806;BME280;8520;50.102;20.010;2022-10-16T06:51:18;98673.59;;;18.68;69.48
16806;BME280;8520;50.102;20.010;2022-10-16T06:53:48;98670.94;;;18.81;68.95
16806;BME280;8520;50.102;20.010;2022-10-16T06:56:33;98681.66;;;18.77;69.50
16806;BME280;8520;50.102;20.010;2022-10-16T06:59:02;98671.66;;;18.87;68.73
16806;BME280;8520;50.102;20.010;2022-10-16T07:01:31;98681.69;;;19.01;67.91
16806;BME280;8520;50.102;20.010;2022-10-16T07:04:00;98683.59;;;18.88;67.15
16806;BME280;8520;50.102;20.010;2022-10-16T07:06:31;98678.06;;;19.12;66.59
16806;BME280;8520;50.102;20.010;2022-10-16T07:09:01;98680.44;;;19.27;66.49
16806;BME280;8520;50.102;20.010;2022-10-16T07:11:30;98678.03;;;19.37;66.32
16806;BME280;8520;50.102;20.010;2022-10-16T07:13:59;98688.81;;;19.51;66.01
16806;BME280;8520;50.102;20.010;2022-10-16T07:16:28;98681.63;;;19.62;65.53
16806;BME280;8520;50.102;20.010;2022-10-16T07:18:57;98689.88;;;19.48;65.85
16806;BME280;8520;50.102;20.010;2022-10-16T07:21:28;98686.41;;;19.67;66.29
16806;BME280;8520;50.102;20.010;2022-10-16T07:23:58;98690.78;;;19.81;65.18
16806;BME280;8520;50.102;20.010;2022-10-16T07:26:30;98694.34;;;19.81;65.65
16806;BME280;8520;50.102;20.010;2022-10-16T07:29:00;98694.47;;;19.95;64.78
16806;BME280;8520;50.102;20.010;2022-10-16T07:31:28;98694.59;;;20.02;63.87
16806;BME280;8520;50.102;20.010;2022-10-16T07:33:58;98695.59;;;20.05;63.36
16806;BME280;8520;50.102;20.010;2022-10-16T07:36:26;98694.31;;;20.06;62.88
16806;BME280;8520;50.102;20.010;2022-10-16T07:38:54;98699.97;;;20.19;63.38
16806;BME280;8520;50.102;20.010;2022-10-16T07:41:26;98688.88;;;20.32;62.19
16806;BME280;8520;50.102;20.010;2022-10-16T07:43:54;98690.06;;;20.56;61.56
16806;BME280;8520;50.102;20.010;2022-10-16T07:46:24;98693.47;;;20.67;61.26
16806;BME280;8520;50.102;20.010;2022-10-16T07:48:52;98691.81;;;20.59;61.64
16806;BME280;8520;50.102;20.010;2022-10-16T07:51:21;98695.97;;;20.84;60.22
16806;BME280;8520;50.102;20.010;2022-10-16T07:53:50;98697.88;;;20.95;60.23
16806;BME280;8520;50.102;20.010;2022-10-16T07:56:19;98694.72;;;20.85;59.95
16806;BME280;8520;50.102;20.010;2022-10-16T07:58:48;98701.66;;;21.11;59.82
16806;BME280;8520;50.102;20.010;2022-10-16T08:01:17;98704.66;;;20.99;59.96
16806;BME280;8520;50.102;20.010;2022-10-16T08:03:48;98704.84;;;20.88;59.49
16806;BME280;8520;50.102;20.010;2022-10-16T08:06:18;98710.47;;;21.01;59.40
16806;BME280;8520;50.102;20.010;2022-10-16T08:08:52;98710.38;;;20.94;59.44
16806;BME280;8520;50.102;20.010;2022-10-16T08:11:20;98711.41;;;20.91;59.57
16806;BME280;8520;50.102;20.010;2022-10-16T08:13:48;98715.44;;;20.95;59.24
16806;BME280;8520;50.102;20.010;2022-10-16T08:16:16;98709.06;;;20.95;59.45
16806;BME280;8520;50.102;20.010;2022-10-16T08:18:44;98718.53;;;20.92;59.57
16806;BME280;8520;50.102;20.010;2022-10-16T08:21:15;98720.97;;;21.14;59.07
16806;BME280;8520;50.102;20.010;2022-10-16T08:23:47;98724.06;;;21.11;58.88
16806;BME280;8520;50.102;20.010;2022-10-16T08:26:24;98719.28;;;21.24;59.47
16806;BME280;8520;50.102;20.010;2022-10-16T08:28:52;98718.69;;;21.45;59.01
16806;BME280;8520;50.102;20.010;2022-10-16T08:31:20;98719.66;;;21.61;58.98
16806;BME280;8520;50.102;20.010;2022-10-16T08:33:49;98719.88;;;21.63;58.84
16806;BME280;8520;50.102;20.010;2022-10-16T08:36:19;98718.56;;;21.64;58.89
16806;BME280;8520;50.102;20.010;2022-10-16T08:38:48;98720.66;;;21.76;58.32
16806;BME280;8520;50.102;20.010;2022-10-16T08:41:37;98722.47;;;21.87;57.83
16806;BME280;8520;50.102;20.010;2022-10-16T08:44:32;98720.41;;;22.01;57.26
16806;BME280;8520;50.102;20.010;2022-10-16T08:47:13;98727.84;;;21.85;57.64
16806;BME280;8520;50.102;20.010;2022-10-16T08:49:54;98730.31;;;22.02;57.51
16806;BME280;8520;50.102;20.010;2022-10-16T08:52:27;98727.53;;;22.15;57.54
16806;BME280;8520;50.102;20.010;2022-10-16T08:54:56;98725.75;;;22.38;57.00
16806;BME280;8520;50.102;20.010;2022-10-16T08:57:25;98731.75;;;22.56;56.76
16806;BME280;8520;50.102;20.010;2022-10-16T08:59:55;98731.28;;;22.65;56.40
16806;BME280;8520;50.102;20.010;2022-10-16T09:02:31;98726.22;;;22.97;55.33
16806;BME280;8520;50.102;20.010;2022-10-16T09:05:17;98726.78;;;22.83;55.95
16806;BME280;8520;50.102;20.010;2022-10-16T09:07:57;98735.53;;;22.92;55.96
16806;BME280;8520;50.102;20.010;2022-10-16T09:10:40;98735.88;;;22.76;56.61
16806;BME280;8520;50.102;20.010;2022-10-16T09:13:17;98732.88;;;23.08;56.15
16806;BME280;8520;50.102;20.010;2022-10-16T09:15:50;98735.81;;;23.23;56.16
16806;BME280;8520;50.102;20.010;2022-10-16T09:18:25;98736.81;;;23.12;55.62
16806;BME280;8520;50.102;20.010;2022-10-16T09:21:02;98744.94;;;22.82;55.57
16806;BME280;8520;50.102;20.010;2022-10-16T09:23:37;98743.84;;;22.98;56.34
16806;BME280;8520;50.102;20.010;2022-10-16T09:26:10;98743.34;;;23.07;56.74
16806;BME280;8520;50.102;20.010;2022-10-16T09:28:39;98743.09;;;23.47;56.27
16806;BME280;8520;50.102;20.010;2022-10-16T09:31:13;98748.72;;;23.47;55.32
16806;BME280;8520;50.102;20.010;2022-10-16T09:33:44;98743.13;;;23.26;55.39
16806;BME280;8520;50.102;20.010;2022-10-16T09:36:13;98745.19;;;23.75;55.05
16806;BME280;8520;50.102;20.010;2022-10-16T09:38:43;98739.94;;;23.71;55.64
16806;BME280;8520;50.102;20.010;2022-10-16T09:41:16;98744.75;;;23.63;53.87
16806;BME280;8520;50.102;20.010;2022-10-16T09:43:52;98747.31;;;23.82;54.00
16806;BME280;8520;50.102;20.010;2022-10-16T09:46:25;98748.22;;;24.13;53.60
16806;BME280;8520;50.102;20.010;2022-10-16T09:48:55;98740.19;;;24.17;53.87
16806;BME280;8520;50.102;20.010;2022-10-16T09:51:25;98752.31;;;24.04;54.86
16806;BME280;8520;50.102;20.010;2022-10-16T09:53:57;98746.56;;;24.18;53.63
16806;BME280;8520;50.102;20.010;2022-10-16T09:56:28;98747.38;;;24.26;53.55
16806;BME280;8520;50.102;20.010;2022-10-16T09:58:58;98745.16;;;24.32;53.63
16806;BME280;8520;50.102;20.010;2022-10-16T10:01:30;98742.59;;;24.13;54.69
16806;BME280;8520;50.102;20.010;2022-10-16T10:03:59;98746.44;;;24.31;53.67
16806;BME280;8520;50.102;20.010;2022-10-16T10:06:31;98747.66;;;24.43;52.88
16806;BME280;8520;50.102;20.010;2022-10-16T10:09:14;98754.25;;;24.53;52.58
16806;BME280;8520;50.102;20.010;2022-10-16T10:11:47;98750.75;;;24.24;53.33
16806;BME280;8520;50.102;20.010;2022-10-16T10:14:24;98751.09;;;24.21;53.80
16806;BME280;8520;50.102;20.010;2022-10-16T10:17:06;98755.88;;;24.41;53.24
16806;BME280;8520;50.102;20.010;2022-10-16T10:19:40;98762.75;;;24.61;53.16
16806;BME280;8520;50.102;20.010;2022-10-16T10:22:22;98753.38;;;24.74;52.70
16806;BME280;8520;50.102;20.010;2022-10-16T10:25:12;98753.41;;;24.81;52.13
16806;BME280;8520;50.102;20.010;2022-10-16T10:27:49;98754.94;;;25.05;52.40
16806;BME280;8520;50.102;20.010;2022-10-16T10:30:23;98760.25;;;25.16;51.69
16806;BME280;8520;50.102;20.010;2022-10-16T10:33:03;98754.97;;;25.13;51.74
16806;BME280;8520;50.102;20.010;2022-10-16T10:35:42;98755.16;;;25.22;51.70
16806;BME280;8520;50.102;20.010;2022-10-16T10:38:22;98752.91;;;25.44;51.34
16806;BME280;8520;50.102;20.010;2022-10-16T10:41:08;98754.03;;;25.18;52.42
16806;BME280;8520;50.102;20.010;2022-10-16T10:43:52;98757.22;;;25.30;51.22
16806;BME280;8520;50.102;20.010;2022-10-16T10:46:28;98749.31;;;25.59;51.13
16806;BME280;8520;50.102;20.010;2022-10-16T10:52:19;98747.81;;;25.88;51.45
16806;BME280;8520;50.102;20.010;2022-10-16T10:54:55;98740.44;;;26.00;50.33
16806;BME280;8520;50.102;20.010;2022-10-16T10:57:34;98737.09;;;25.79;50.44
16806;BME280;8520;50.102;20.010;2022-10-16T11:00:17;98745.84;;;26.14;51.11
16806;BME280;8520;50.102;20.010;2022-10-16T11:02:53;98732.25;;;26.27;51.51
16806;BME280;8520;50.102;20.010;2022-10-16T11:05:41;98735.88;;;26.13;50.23
16806;BME280;8520;50.102;20.010;2022-10-16T11:08:14;98733.72;;;25.80;52.01
16806;BME280;8520;50.102;20.010;2022-10-16T11:10:50;98739.78;;;26.25;50.54
16806;BME280;8520;50.102;20.010;2022-10-16T11:13:29;98735.22;;;26.45;49.76
16806;BME280;8520;50.102;20.010;2022-10-16T11:16:00;98736.75;;;26.23;49.42
16806;BME280;8520;50.102;20.010;2022-10-16T11:18:37;98740.31;;;26.31;50.61
16806;BME280;8520;50.102;20.010;2022-10-16T11:21:10;98744.19;;;26.03;49.38
16806;BME280;8520;50.102;20.010;2022-10-16T11:23:43;98739.94;;;26.34;48.72
16806;BME280;8520;50.102;20.010;2022-10-16T11:26:16;98728.63;;;26.34;49.26
16806;BME280;8520;50.102;20.010;2022-10-16T11:28:49;98735.44;;;26.24;49.60
16806;BME280;8520;50.102;20.010;2022-10-16T11:31:24;98742.97;;;26.29;49.08
16806;BME280;8520;50.102;20.010;2022-10-16T11:34:01;98740.19;;;26.14;50.40
16806;BME280;8520;50.102;20.010;2022-10-16T11:36:34;98739.22;;;26.26;48.99
16806;BME280;8520;50.102;20.010;2022-10-16T11:39:12;98736.59;;;26.21;49.08
16806;BME280;8520;50.102;20.010;2022-10-16T11:41:49;98741.34;;;26.11;50.04
16806;BME280;8520;50.102;20.010;2022-10-16T11:44:44;98741.28;;;26.26;49.64
16806;BME280;8520;50.102;20.010;2022-10-16T11:47:24;98747.72;;;26.19;49.71
16806;BME280;8520;50.102;20.010;2022-10-16T11:50:20;98731.25;;;26.32;49.40
16806;BME280;8520;50.102;20.010;2022-10-16T11:52:55;98738.22;;;26.31;49.50
16806;BME280;8520;50.102;20.010;2022-10-16T11:55:28;98739.34;;;26.36;49.31
16806;BME280;8520;50.102;20.010;2022-10-16T11:58:01;98735.44;;;26.24;49.05
16806;BME280;8520;50.102;20.010;2022-10-16T12:00:37;98741.59;;;26.45;48.74
16806;BME280;8520;50.102;20.010;2022-10-16T12:03:15;98735.72;;;26.51;49.58
16806;BME280;8520;50.102;20.010;2022-10-16T12:05:55;98741.56;;;26.53;49.89
16806;BME280;8520;50.102;20.010;2022-10-16T12:08:26;98745.75;;;26.44;49.58
16806;BME280;8520;50.102;20.010;2022-10-16T12:11:06;98743.44;;;26.02;50.10
16806;BME280;8520;50.102;20.010;2022-10-16T12:13:36;98737.66;;;26.33;49.72
16806;BME280;8520;50.102;20.010;2022-10-16T12:16:21;98740.69;;;26.35;50.20
16806;BME280;8520;50.102;20.010;2022-10-16T12:18:49;98737.28;;;26.36;50.06
16806;BME280;8520;50.102;20.010;2022-10-16T12:21:17;98742.47;;;26.15;49.80
16806;BME280;8520;50.102;20.010;2022-10-16T12:23:48;98742.63;;;26.17;49.84
16806;BME280;8520;50.102;20.010;2022-10-16T12:26:24;98737.66;;;26.41;49.55
16806;BME280;8520;50.102;20.010;2022-10-16T12:28:53;98737.22;;;26.04;49.95
16806;BME280;8520;50.102;20.010;2022-10-16T12:31:23;98736.09;;;26.07;50.22
16806;BME280;8520;50.102;20.010;2022-10-16T12:33:58;98733.56;;;26.26;50.03
16806;BME280;8520;50.102;20.010;2022-10-16T12:36:29;98747.84;;;26.36;50.14
16806;BME280;8520;50.102;20.010;2022-10-16T12:38:58;98745.75;;;25.66;50.33
16806;BME280;8520;50.102;20.010;2022-10-16T12:41:28;98741.81;;;25.61;51.11
16806;BME280;8520;50.102;20.010;2022-10-16T12:43:57;98738.25;;;25.53;50.85
16806;BME280;8520;50.102;20.010;2022-10-16T12:46:38;98739.94;;;25.10;51.72
16806;BME280;8520;50.102;20.010;2022-10-16T12:49:21;98737.50;;;25.52;51.36
16806;BME280;8520;50.102;20.010;2022-10-16T12:51:51;98743.13;;;25.30;51.30
16806;BME280;8520;50.102;20.010;2022-10-16T12:54:27;98747.03;;;24.88;51.74
16806;BME280;8520;50.102;20.010;2022-10-16T12:57:21;98750.28;;;25.38;51.15
16806;BME280;8520;50.102;20.010;2022-10-16T13:00:00;98751.59;;;25.07;51.64
16806;BME280;8520;50.102;20.010;2022-10-16T13:05:47;98758.66;;;24.85;51.60
16806;BME280;8520;50.102;20.010;2022-10-16T13:08:34;98760.00;;;24.40;52.67
16806;BME280;8520;50.102;20.010;2022-10-16T13:11:14;98761.53;;;25.23;51.28
16806;BME280;8520;50.102;20.010;2022-10-16T13:13:57;98767.53;;;25.04;51.67
16806;BME280;8520;50.102;20.010;2022-10-16T13:16:37;98766.81;;;25.42;51.25
16806;BME280;8520;50.102;20.010;2022-10-16T13:19:18;98756.47;;;25.21;51.15
16806;BME280;8520;50.102;20.010;2022-10-16T13:21:58;98759.88;;;25.35;51.54
16806;BME280;8520;50.102;20.010;2022-10-16T13:24:42;98772.59;;;24.39;52.79
16806;BME280;8520;50.102;20.010;2022-10-16T13:27:20;98767.00;;;24.47;53.65
16806;BME280;8520;50.102;20.010;2022-10-16T13:30:00;98769.53;;;23.93;54.17
16806;BME280;8520;50.102;20.010;2022-10-16T13:32:30;98772.44;;;24.08;54.17